Time;durP1;ratioP1;P1;durP2;ratioP2;P2;SDS_P1;SDS_P2;PMS_P1;PMS_P2;Temp;Humidity;BMP_temperature;BMP_pressure;BME280_temperature;BME280_humidity;BME280_pressure;Samples;Min_cycle;Max_cycle;Signal;HPM_P1;HPM_P2
2023/10/22 00:01:15;;;;;;;2.42;1.58;;;13.00;99.90;;;;;;4995777;28;20030;-87
2023/10/22 00:03:41;;;;;;;4.00;1.20;;;13.00;99.90;;;;;;4996081;28;20116;-87
2023/10/22 00:06:06;;;;;;;2.70;1.20;;;13.10;99.90;;;;;;4995130;28;20037;-87
2023/10/22 00:08:32;;;;;;;5.13;1.15;;;13.10;99.90;;;;;;4994567;28;20038;-87
2023/10/22 00:10:57;;;;;;;2.22;1.17;;;13.20;99.90;;;;;;5011256;28;20049;-88
2023/10/22 00:13:23;;;;;;;4.82;1.00;;;13.20;99.90;;;;;;5012264;28;20099;-87
2023/10/22 00:15:49;;;;;;;3.75;1.42;;;13.20;99.90;;;;;;5012901;28;20081;-87
2023/10/22 00:18:14;;;;;;;1.70;0.85;;;13.30;99.90;;;;;;5017062;28;20041;-87
2023/10/22 00:20:41;;;;;;;3.85;1.30;;;13.30;99.90;;;;;;5034522;28;20036;-87
2023/10/22 00:23:07;;;;;;;1.58;0.90;;;13.40;99.90;;;;;;5003756;28;20036;-88
2023/10/22 00:25:36;;;;;;;3.15;1.20;;;13.40;99.90;;;;;;5009321;28;20097;-88
2023/10/22 00:28:03;;;;;;;2.88;0.88;;;13.40;99.90;;;;;;5015942;28;20539;-89
2023/10/22 00:30:30;;;;;;;6.65;1.10;;;13.50;99.90;;;;;;4996665;28;20038;-87
2023/10/22 00:32:56;;;;;;;3.35;1.10;;;13.50;99.90;;;;;;5010445;28;20041;-87
2023/10/22 00:35:21;;;;;;;3.13;1.25;;;13.60;99.90;;;;;;5021282;28;20104;-87
2023/10/22 00:37:47;;;;;;;4.78;1.10;;;13.50;99.90;;;;;;5013679;28;20042;-87
2023/10/22 00:40:14;;;;;;;2.83;1.17;;;13.50;99.90;;;;;;4996494;28;20041;-86
2023/10/22 00:42:40;;;;;;;3.25;0.98;;;13.50;99.90;;;;;;5012843;28;20050;-87
2023/10/22 00:45:07;;;;;;;2.95;1.17;;;13.50;99.90;;;;;;5010731;28;20038;-87
2023/10/22 00:47:33;;;;;;;3.60;1.05;;;13.50;99.90;;;;;;5012637;28;20517;-87
2023/10/22 00:49:59;;;;;;;2.50;1.08;;;13.50;99.90;;;;;;5012425;28;20053;-87
2023/10/22 00:52:26;;;;;;;3.20;1.10;;;13.50;99.90;;;;;;5012520;28;20034;-86
2023/10/22 00:54:54;;;;;;;3.28;1.10;;;13.50;99.90;;;;;;5011584;28;20055;-87
2023/10/22 00:57:21;;;;;;;2.83;1.10;;;13.50;99.90;;;;;;5010919;28;20034;-88
2023/10/22 00:59:47;;;;;;;3.38;1.05;;;13.50;99.90;;;;;;5012133;28;20068;-87
2023/10/22 01:02:13;;;;;;;2.88;1.15;;;13.50;99.90;;;;;;4995808;28;20026;-87
2023/10/22 01:04:39;;;;;;;2.92;1.00;;;13.50;99.90;;;;;;5009683;28;20042;-86
2023/10/22 01:07:06;;;;;;;6.47;1.45;;;13.40;99.90;;;;;;4995440;28;20088;-87
2023/10/22 01:09:31;;;;;;;1.77;1.10;;;13.40;99.90;;;;;;4996051;28;20045;-87
2023/10/22 01:12:02;;;;;;;3.00;1.13;;;13.40;99.90;;;;;;5011657;28;20061;-86
2023/10/22 01:14:28;;;;;;;3.33;0.95;;;13.40;99.90;;;;;;5011717;28;20044;-87
2023/10/22 01:16:54;;;;;;;2.55;1.02;;;13.40;99.90;;;;;;5008666;28;20120;-87
2023/10/22 01:19:19;;;;;;;2.72;1.10;;;13.40;99.90;;;;;;4995323;28;20045;-88
2023/10/22 01:21:45;;;;;;;4.93;1.30;;;13.40;99.90;;;;;;5018688;28;20057;-88
2023/10/22 01:24:10;;;;;;;3.55;1.15;;;13.40;99.90;;;;;;5009814;28;20034;-87
2023/10/22 01:26:44;;;;;;;2.30;1.00;;;13.40;99.90;;;;;;5021324;28;20603;-87
2023/10/22 01:29:10;;;;;;;6.88;1.33;;;13.40;99.90;;;;;;5010473;28;20524;-88
2023/10/22 01:31:36;;;;;;;3.45;1.05;;;13.40;99.90;;;;;;4999929;28;20034;-86
2023/10/22 01:34:02;;;;;;;3.78;1.02;;;13.30;99.90;;;;;;4998854;28;20037;-87
2023/10/22 01:36:28;;;;;;;2.58;1.02;;;13.30;99.90;;;;;;5015195;28;20042;-88
2023/10/22 01:38:54;;;;;;;5.20;1.33;;;13.20;99.90;;;;;;5014462;28;20076;-87
2023/10/22 01:41:19;;;;;;;3.28;1.17;;;13.10;99.90;;;;;;4998141;28;20030;-87
2023/10/22 01:43:45;;;;;;;4.63;1.10;;;13.00;99.90;;;;;;5015961;28;20046;-88
2023/10/22 01:46:10;;;;;;;3.17;0.90;;;12.90;99.90;;;;;;5013766;28;20037;-88
2023/10/22 01:48:38;;;;;;;6.63;1.10;;;12.80;99.90;;;;;;5015989;28;20068;-87
2023/10/22 01:51:03;;;;;;;3.20;1.30;;;12.70;99.90;;;;;;5014445;28;20125;-87
2023/10/22 01:53:29;;;;;;;1.95;1.10;;;12.70;99.90;;;;;;5014132;28;20487;-88
2023/10/22 01:55:55;;;;;;;3.08;1.20;;;12.60;99.90;;;;;;5014551;28;20483;-86
2023/10/22 01:58:21;;;;;;;3.22;1.40;;;12.50;99.90;;;;;;5014895;28;20037;-86
2023/10/22 02:00:47;;;;;;;3.00;1.30;;;12.40;99.90;;;;;;5015658;28;20049;-89
2023/10/22 02:03:13;;;;;;;4.03;1.45;;;12.30;99.90;;;;;;5015332;28;20033;-86
2023/10/22 02:05:39;;;;;;;2.95;1.63;;;12.30;99.90;;;;;;4997695;28;20139;-86
2023/10/22 02:08:06;;;;;;;6.13;1.60;;;12.30;99.90;;;;;;4994092;28;20080;-87
2023/10/22 02:10:32;;;;;;;3.08;1.40;;;12.20;99.90;;;;;;5014820;28;20461;-86
2023/10/22 02:12:57;;;;;;;4.45;1.20;;;12.20;99.90;;;;;;5013505;28;20041;-87
2023/10/22 02:15:25;;;;;;;3.17;1.50;;;12.20;99.90;;;;;;4997487;28;20095;-86
2023/10/22 02:17:50;;;;;;;4.78;1.45;;;12.20;99.90;;;;;;4998743;28;20048;-86
2023/10/22 02:20:16;;;;;;;3.15;1.40;;;12.20;99.90;;;;;;4996371;28;20034;-87
2023/10/22 02:22:41;;;;;;;3.58;1.25;;;12.20;99.90;;;;;;5013724;28;20419;-86
2023/10/22 02:25:10;;;;;;;3.58;1.30;;;12.20;99.90;;;;;;5014365;28;20037;-87
2023/10/22 02:27:36;;;;;;;1.92;1.20;;;12.10;99.90;;;;;;5014105;28;20117;-91
2023/10/22 02:30:02;;;;;;;5.22;1.50;;;12.10;99.90;;;;;;5013845;28;20187;-86
2023/10/22 02:32:27;;;;;;;4.22;1.23;;;12.10;99.90;;;;;;4997111;28;20077;-86
2023/10/22 02:34:53;;;;;;;4.05;1.27;;;12.10;99.90;;;;;;5014279;28;20029;-86
2023/10/22 02:37:19;;;;;;;2.88;1.20;;;12.10;99.90;;;;;;5013618;28;20033;-86
2023/10/22 02:39:45;;;;;;;2.88;1.02;;;12.10;99.90;;;;;;5014736;28;20126;-86
2023/10/22 02:42:11;;;;;;;3.38;1.48;;;12.10;99.90;;;;;;5013691;28;20062;-86
2023/10/22 02:44:36;;;;;;;4.38;1.48;;;12.20;99.90;;;;;;5014046;28;20040;-87
2023/10/22 02:47:02;;;;;;;3.10;1.40;;;12.20;99.90;;;;;;5013786;28;20066;-86
2023/10/22 02:49:29;;;;;;;5.00;1.48;;;12.20;99.90;;;;;;4994897;28;20068;-88
2023/10/22 02:51:55;;;;;;;3.33;1.40;;;12.20;99.90;;;;;;5012385;28;20076;-86
2023/10/22 02:54:21;;;;;;;3.67;1.40;;;12.20;99.90;;;;;;5013233;28;20459;-86
2023/10/22 02:56:47;;;;;;;2.28;1.25;;;12.20;99.90;;;;;;5015065;28;20045;-86
2023/10/22 02:59:13;;;;;;;1.92;1.25;;;12.30;99.90;;;;;;5080574;23;20490;-83
2023/10/22 03:01:39;;;;;;;5.22;1.90;;;12.30;99.90;;;;;;5051139;28;20079;-84
2023/10/22 03:04:04;;;;;;;3.95;1.58;;;12.30;99.90;;;;;;5050426;28;20040;-84
2023/10/22 03:06:30;;;;;;;4.38;1.33;;;12.30;99.90;;;;;;5067096;28;20447;-85
2023/10/22 03:08:55;;;;;;;4.80;1.42;;;12.30;99.90;;;;;;5053017;28;20038;-83
2023/10/22 03:11:21;;;;;;;4.15;1.38;;;12.30;99.90;;;;;;5069302;28;20043;-84
2023/10/22 03:13:49;;;;;;;2.67;1.40;;;12.30;99.90;;;;;;5068736;28;20494;-84
2023/10/22 03:16:15;;;;;;;5.35;1.55;;;12.30;99.90;;;;;;5055867;28;20109;-84
2023/10/22 03:18:44;;;;;;;2.78;1.20;;;12.40;99.90;;;;;;5052265;28;20445;-83
2023/10/22 03:21:11;;;;;;;2.72;1.20;;;12.30;99.90;;;;;;5053683;28;20032;-84
2023/10/22 03:23:41;;;;;;;4.25;1.48;;;12.40;99.90;;;;;;5055010;28;20068;-85
2023/10/22 03:26:07;;;;;;;3.17;1.42;;;12.40;99.90;;;;;;5049010;28;20032;-84
2023/10/22 03:28:33;;;;;;;1.90;1.23;;;12.40;99.90;;;;;;5056902;28;20085;-85
2023/10/22 03:31:03;;;;;;;1.30;1.00;;;12.40;99.90;;;;;;5069380;28;20435;-83
2023/10/22 03:33:28;;;;;;;4.55;1.70;;;12.40;99.90;;;;;;5051432;28;20590;-83
2023/10/22 03:35:54;;;;;;;2.20;1.20;;;12.40;99.90;;;;;;5052539;28;20034;-84
2023/10/22 03:38:19;;;;;;;5.22;2.05;;;12.40;99.90;;;;;;5067954;28;20127;-84
2023/10/22 03:40:45;;;;;;;2.20;1.50;;;12.40;99.90;;;;;;5057221;28;20052;-84
2023/10/22 03:43:11;;;;;;;2.85;1.40;;;12.40;99.90;;;;;;5066129;28;20108;-85
2023/10/22 03:45:37;;;;;;;3.33;1.40;;;12.30;99.90;;;;;;5053334;28;20036;-84
2023/10/22 03:48:03;;;;;;;5.55;1.80;;;12.30;99.90;;;;;;5051688;28;20039;-83
2023/10/22 03:50:29;;;;;;;2.63;1.40;;;12.30;99.90;;;;;;5057434;28;20040;-84
2023/10/22 03:52:54;;;;;;;5.00;2.50;;;12.30;99.90;;;;;;5063615;28;20036;-84
2023/10/22 03:55:20;;;;;;;4.55;1.90;;;12.20;99.90;;;;;;5054548;28;20052;-84
2023/10/22 03:57:45;;;;;;;3.05;2.00;;;12.20;99.90;;;;;;5067281;28;20482;-84
2023/10/22 04:00:11;;;;;;;3.33;1.52;;;12.20;99.90;;;;;;5052094;28;20028;-84
2023/10/22 04:02:37;;;;;;;4.28;1.73;;;12.20;99.90;;;;;;5063513;28;20037;-85
2023/10/22 04:05:03;;;;;;;3.33;2.13;;;12.20;99.90;;;;;;5081090;28;20030;-84
2023/10/22 04:07:30;;;;;;;3.00;1.65;;;12.20;99.90;;;;;;5051884;28;20032;-84
2023/10/22 04:09:56;;;;;;;2.35;1.85;;;12.20;99.90;;;;;;5074095;28;20068;-85
2023/10/22 04:12:22;;;;;;;2.83;1.83;;;12.10;99.90;;;;;;5071354;28;20075;-83
2023/10/22 04:14:47;;;;;;;3.15;1.67;;;12.20;99.90;;;;;;5049885;28;20051;-83
2023/10/22 04:17:13;;;;;;;6.00;1.95;;;12.20;99.90;;;;;;5052422;28;20032;-83
2023/10/22 04:19:38;;;;;;;2.17;1.77;;;12.20;99.90;;;;;;5050184;28;20086;-84
2023/10/22 04:22:04;;;;;;;2.95;1.73;;;12.20;99.90;;;;;;5067339;28;20513;-84
2023/10/22 04:24:30;;;;;;;6.03;2.00;;;12.10;99.90;;;;;;5068735;28;20032;-83
2023/10/22 04:26:56;;;;;;;2.13;1.63;;;12.10;99.90;;;;;;5069108;28;20135;-84
2023/10/22 04:29:21;;;;;;;3.80;2.00;;;12.20;99.90;;;;;;5047649;28;20570;-86
2023/10/22 04:31:47;;;;;;;2.58;1.90;;;12.10;99.90;;;;;;5051073;28;20075;-85
2023/10/22 04:34:13;;;;;;;4.05;2.00;;;12.10;99.90;;;;;;5062628;28;20037;-84
2023/10/22 04:36:38;;;;;;;3.38;2.08;;;12.10;99.90;;;;;;5075859;28;20114;-86
2023/10/22 04:39:04;;;;;;;3.63;2.13;;;12.10;99.90;;;;;;5068558;28;20035;-84
2023/10/22 04:41:29;;;;;;;3.70;1.75;;;12.20;99.90;;;;;;5052582;28;20041;-84
2023/10/22 04:43:55;;;;;;;2.55;1.83;;;12.10;99.90;;;;;;5045745;28;20036;-85
2023/10/22 04:46:20;;;;;;;3.90;2.45;;;12.20;99.90;;;;;;5051535;28;20040;-85
2023/10/22 04:48:46;;;;;;;2.45;2.25;;;12.10;99.90;;;;;;5049628;28;20041;-84
2023/10/22 04:51:12;;;;;;;3.28;2.00;;;12.10;99.90;;;;;;5053179;28;20123;-84
2023/10/22 04:53:37;;;;;;;3.17;2.17;;;12.10;99.90;;;;;;5046514;28;20071;-84
2023/10/22 04:56:05;;;;;;;2.20;2.00;;;12.10;99.90;;;;;;5052520;28;20039;-86
2023/10/22 04:58:32;;;;;;;2.83;1.90;;;12.20;99.90;;;;;;5050139;28;20058;-84
2023/10/22 05:00:58;;;;;;;2.38;2.00;;;12.10;99.90;;;;;;5052231;28;20048;-85
2023/10/22 05:03:24;;;;;;;3.08;1.95;;;12.20;99.90;;;;;;5049442;28;20042;-85
2023/10/22 05:05:50;;;;;;;2.95;2.00;;;12.20;99.90;;;;;;5089834;28;20074;-85
2023/10/22 05:08:16;;;;;;;2.42;2.10;;;12.10;99.90;;;;;;5054904;28;20501;-84
2023/10/22 05:10:41;;;;;;;2.63;2.00;;;12.20;99.90;;;;;;5070916;28;20127;-85
2023/10/22 05:13:10;;;;;;;2.72;2.20;;;12.10;99.90;;;;;;5057303;28;20048;-84
2023/10/22 05:15:36;;;;;;;3.78;1.90;;;12.20;99.90;;;;;;5055395;28;20051;-84
2023/10/22 05:18:07;;;;;;;3.45;2.20;;;12.10;99.90;;;;;;5056394;28;20040;-84
2023/10/22 05:20:33;;;;;;;2.22;2.03;;;12.20;99.90;;;;;;5071637;28;20575;-84
2023/10/22 05:22:59;;;;;;;2.75;2.38;;;12.10;99.90;;;;;;5051142;28;20522;-84
2023/10/22 05:25:25;;;;;;;2.38;1.80;;;12.20;99.90;;;;;;5053874;28;20044;-85
2023/10/22 05:27:50;;;;;;;1.98;1.70;;;12.20;99.90;;;;;;5054607;28;20040;-85
2023/10/22 05:30:17;;;;;;;2.15;1.90;;;12.20;99.90;;;;;;5048369;28;20032;-85
2023/10/22 05:32:42;;;;;;;2.22;1.70;;;12.20;99.90;;;;;;5056072;28;20033;-85
2023/10/22 05:35:08;;;;;;;1.85;1.73;;;12.20;99.90;;;;;;5059093;28;20045;-85
2023/10/22 05:37:34;;;;;;;1.52;1.42;;;12.10;99.90;;;;;;5058239;28;20075;-85
2023/10/22 05:40:00;;;;;;;1.77;1.67;;;12.20;99.90;;;;;;5071241;28;20039;-84
2023/10/22 05:42:26;;;;;;;1.88;1.60;;;12.10;99.90;;;;;;5053322;28;20044;-85
2023/10/22 05:44:52;;;;;;;1.70;1.60;;;12.10;99.90;;;;;;5065633;28;20040;-85
2023/10/22 05:47:17;;;;;;;1.77;1.65;;;12.10;99.90;;;;;;5068300;28;20086;-85
2023/10/22 05:49:46;;;;;;;1.90;1.80;;;12.10;99.90;;;;;;5052222;28;20044;-85
2023/10/22 05:52:11;;;;;;;2.08;1.88;;;12.10;99.90;;;;;;5054789;28;20048;-85
2023/10/22 05:54:37;;;;;;;2.83;2.28;;;12.10;99.90;;;;;;5070834;28;20032;-84
2023/10/22 05:57:03;;;;;;;2.35;2.15;;;12.10;99.90;;;;;;5069043;28;20406;-85
2023/10/22 05:59:29;;;;;;;2.40;2.20;;;12.10;99.90;;;;;;5052025;28;20037;-86
2023/10/22 06:01:54;;;;;;;2.42;2.28;;;12.10;99.90;;;;;;5051945;28;20120;-85
2023/10/22 06:04:20;;;;;;;2.80;2.60;;;12.20;99.90;;;;;;5050430;28;20039;-84
2023/10/22 06:06:46;;;;;;;2.83;2.63;;;12.10;99.90;;;;;;5054261;28;20079;-85
2023/10/22 06:09:12;;;;;;;2.00;1.80;;;12.10;99.90;;;;;;5068454;28;20086;-85
2023/10/22 06:11:39;;;;;;;3.83;1.75;;;12.10;99.90;;;;;;5070596;28;20118;-85
2023/10/22 06:14:06;;;;;;;2.33;1.40;;;12.10;99.90;;;;;;5066650;28;20032;-85
2023/10/22 06:16:31;;;;;;;3.95;1.73;;;12.10;99.90;;;;;;5068769;28;20044;-85
2023/10/22 06:18:57;;;;;;;2.10;1.70;;;12.00;99.90;;;;;;5056293;28;20032;-85
2023/10/22 06:21:22;;;;;;;2.58;2.20;;;12.00;99.90;;;;;;5065243;28;20033;-84
2023/10/22 06:23:49;;;;;;;4.47;2.85;;;11.90;99.90;;;;;;5063664;28;20040;-85
2023/10/22 06:26:15;;;;;;;3.80;2.85;;;11.80;99.90;;;;;;5070039;28;20387;-85
2023/10/22 06:28:42;;;;;;;5.15;3.60;;;11.80;99.90;;;;;;5051056;28;20052;-85
2023/10/22 06:31:12;;;;;;;6.70;3.83;;;11.80;99.90;;;;;;5059979;28;20378;-85
2023/10/22 06:33:38;;;;;;;7.63;4.95;;;11.70;99.90;;;;;;5059312;28;20068;-85
2023/10/22 06:36:33;;;;;;;6.38;4.68;;;11.70;99.90;;;;;;5051405;28;20032;-84
2023/10/22 06:38:59;;;;;;;8.48;4.45;;;11.80;99.90;;;;;;5032628;28;20041;-85
2023/10/22 06:41:25;;;;;;;5.32;4.10;;;11.70;99.90;;;;;;5067769;28;20045;-86
2023/10/22 06:43:51;;;;;;;4.63;3.55;;;11.70;99.90;;;;;;5046515;28;20085;-85
2023/10/22 06:46:18;;;;;;;4.70;3.78;;;11.70;99.90;;;;;;5047382;28;20029;-85
2023/10/22 06:48:44;;;;;;;4.22;3.53;;;11.70;99.90;;;;;;5046788;28;20048;-85
2023/10/22 06:51:10;;;;;;;5.35;3.72;;;11.70;99.90;;;;;;5062765;28;20041;-84
2023/10/22 06:53:37;;;;;;;4.93;4.15;;;11.60;99.90;;;;;;5046944;28;20049;-85
2023/10/22 06:56:04;;;;;;;6.00;4.05;;;11.60;99.90;;;;;;5046633;28;20044;-85
2023/10/22 06:58:31;;;;;;;10.13;3.88;;;11.60;99.90;;;;;;5054054;28;20045;-84
2023/10/22 07:01:10;;;;;;;4.25;3.70;;;11.60;99.90;;;;;;5059221;28;20036;-85
2023/10/22 07:03:40;;;;;;;6.45;3.75;;;11.60;99.90;;;;;;5047799;28;20041;-85
2023/10/22 07:06:06;;;;;;;5.47;3.65;;;11.60;99.90;;;;;;5048816;28;20440;-88
2023/10/22 07:08:32;;;;;;;6.93;3.75;;;11.60;99.90;;;;;;5065440;28;20132;-86
2023/10/22 07:10:58;;;;;;;6.60;4.30;;;11.60;99.90;;;;;;5054366;28;20059;-86
2023/10/22 07:13:25;;;;;;;5.10;4.55;;;11.70;99.90;;;;;;5058561;28;20069;-87
2023/10/22 07:15:53;;;;;;;6.28;4.55;;;11.70;99.90;;;;;;5048388;28;20036;-87
2023/10/22 07:18:20;;;;;;;6.90;4.93;;;11.70;99.90;;;;;;5061701;28;20052;-85
2023/10/22 07:20:47;;;;;;;5.57;4.65;;;11.70;99.90;;;;;;5054477;28;20059;-86
2023/10/22 07:23:13;;;;;;;7.90;5.45;;;11.70;99.90;;;;;;5073309;28;20517;-86
2023/10/22 07:25:38;;;;;;;7.15;5.28;;;11.80;99.90;;;;;;5068285;28;20037;-86
2023/10/22 07:28:05;;;;;;;6.78;4.93;;;11.70;99.90;;;;;;5045471;28;20036;-85
2023/10/22 07:30:33;;;;;;;7.53;5.60;;;11.70;99.90;;;;;;5046410;28;20553;-86
2023/10/22 07:32:59;;;;;;;6.93;4.45;;;11.80;99.90;;;;;;5048498;28;20063;-86
2023/10/22 07:35:25;;;;;;;7.20;5.13;;;11.80;99.90;;;;;;5049169;28;20414;-85
2023/10/22 07:37:50;;;;;;;6.07;4.97;;;11.80;99.90;;;;;;5068232;28;20474;-86
2023/10/22 07:40:20;;;;;;;6.75;4.85;;;11.80;99.90;;;;;;5052390;28;20159;-85
2023/10/22 07:42:48;;;;;;;6.93;4.72;;;11.80;99.90;;;;;;5048177;28;20127;-86
2023/10/22 07:45:14;;;;;;;7.57;5.45;;;11.80;99.90;;;;;;5051018;28;20117;-86
2023/10/22 07:47:40;;;;;;;5.68;5.07;;;11.80;99.90;;;;;;5052558;28;20486;-86
2023/10/22 07:50:06;;;;;;;13.23;6.43;;;11.90;99.90;;;;;;5055660;28;20047;-86
2023/10/22 07:52:32;;;;;;;9.18;6.78;;;11.90;99.90;;;;;;5051685;28;20089;-86
2023/10/22 07:54:58;;;;;;;7.43;5.82;;;11.90;99.90;;;;;;5072687;28;20036;-86
2023/10/22 07:57:28;;;;;;;8.68;6.30;;;12.00;99.90;;;;;;5070142;28;20034;-86
2023/10/22 07:59:56;;;;;;;10.23;6.70;;;12.00;99.90;;;;;;5049264;28;20090;-85
2023/10/22 08:02:23;;;;;;;10.55;7.43;;;12.10;99.90;;;;;;5050339;28;20033;-85
2023/10/22 08:04:49;;;;;;;10.13;7.30;;;12.10;99.90;;;;;;5069518;28;20048;-86
2023/10/22 08:07:18;;;;;;;9.60;7.50;;;12.10;99.90;;;;;;5058832;28;20509;-85
2023/10/22 08:09:45;;;;;;;9.45;6.90;;;12.20;99.90;;;;;;5051658;28;20487;-86
2023/10/22 08:12:11;;;;;;;10.35;7.93;;;12.20;99.90;;;;;;5066729;28;20414;-85
2023/10/22 08:14:37;;;;;;;11.90;7.32;;;12.30;99.90;;;;;;5053400;28;20033;-86
2023/10/22 08:17:03;;;;;;;13.70;8.93;;;12.30;99.90;;;;;;5069269;28;20040;-86
2023/10/22 08:19:29;;;;;;;12.80;9.65;;;12.30;99.90;;;;;;5067319;28;20029;-87
2023/10/22 08:21:54;;;;;;;14.95;10.25;;;12.30;99.90;;;;;;5048284;28;20064;-86
2023/10/22 08:24:20;;;;;;;12.35;9.27;;;12.30;99.90;;;;;;5056907;28;20059;-85
2023/10/22 08:26:46;;;;;;;9.38;7.47;;;12.40;99.90;;;;;;5062922;28;20051;-86
2023/10/22 08:29:11;;;;;;;9.27;5.90;;;12.50;99.90;;;;;;5069789;28;20087;-85
2023/10/22 08:31:37;;;;;;;8.98;6.45;;;12.50;99.90;;;;;;5066815;28;20605;-86
2023/10/22 08:34:03;;;;;;;8.77;6.55;;;12.50;99.90;;;;;;5056292;28;20037;-85
2023/10/22 08:36:28;;;;;;;8.48;6.57;;;12.60;99.90;;;;;;5051814;28;20033;-86
2023/10/22 08:38:54;;;;;;;7.00;6.22;;;12.60;99.90;;;;;;5065414;28;20044;-85
2023/10/22 08:41:25;;;;;;;9.00;6.57;;;12.60;99.90;;;;;;5052974;28;20494;-86
2023/10/22 08:43:51;;;;;;;9.63;6.20;;;12.80;99.90;;;;;;5050908;28;20042;-85
2023/10/22 08:46:17;;;;;;;6.18;5.57;;;13.00;99.90;;;;;;5066928;28;20033;-85
2023/10/22 08:48:44;;;;;;;7.57;5.28;;;13.30;99.90;;;;;;5067397;28;20037;-85
2023/10/22 08:51:10;;;;;;;7.68;5.13;;;13.60;99.90;;;;;;5057623;28;20036;-86
2023/10/22 08:53:37;;;;;;;6.80;5.10;;;14.00;99.90;;;;;;5049768;28;20098;-86
2023/10/22 08:56:03;;;;;;;6.00;4.70;;;14.30;99.90;;;;;;5066564;28;20037;-85
2023/10/22 08:58:28;;;;;;;5.57;4.95;;;14.30;99.90;;;;;;5048512;28;20064;-86
2023/10/22 09:00:54;;;;;;;7.30;4.53;;;14.30;99.90;;;;;;5067923;28;20063;-86
2023/10/22 09:03:22;;;;;;;5.80;4.57;;;14.30;99.90;;;;;;5043872;28;20411;-85
2023/10/22 09:05:48;;;;;;;4.72;4.15;;;14.00;99.90;;;;;;5069306;28;20051;-86
2023/10/22 09:08:14;;;;;;;6.53;4.30;;;13.90;99.90;;;;;;5049404;28;20044;-87
2023/10/22 09:10:40;;;;;;;7.15;4.60;;;13.90;99.90;;;;;;5077573;28;20528;-86
2023/10/22 09:13:25;;;;;;;4.53;3.72;;;13.90;99.90;;;;;;5066352;28;20119;-86
2023/10/22 09:15:52;;;;;;;6.70;3.45;;;14.00;99.90;;;;;;5070778;28;20040;-85
2023/10/22 09:18:18;;;;;;;4.82;3.70;;;14.00;99.90;;;;;;5068949;28;20086;-87
2023/10/22 09:20:45;;;;;;;4.47;3.88;;;13.90;99.90;;;;;;5061023;28;20540;-85
2023/10/22 09:23:14;;;;;;;5.32;4.05;;;14.10;99.90;;;;;;5066312;28;20091;-87
2023/10/22 09:25:40;;;;;;;5.18;3.83;;;14.40;99.90;;;;;;5067164;28;20040;-86
2023/10/22 09:28:22;;;;;;;4.53;3.63;;;15.10;99.90;;;;;;5056988;28;20098;-84
2023/10/22 09:31:08;;;;;;;4.30;3.60;;;16.00;99.90;;;;;;5050303;28;20040;-86
2023/10/22 09:33:41;;;;;;;3.72;3.35;;;16.70;99.90;;;;;;5048696;28;20044;-86
2023/10/22 09:36:09;;;;;;;4.72;3.40;;;17.00;99.90;;;;;;5044081;28;20071;-86
2023/10/22 09:38:42;;;;;;;4.80;3.63;;;17.00;99.90;;;;;;5050365;28;20452;-85
2023/10/22 09:41:11;;;;;;;3.80;3.20;;;17.20;99.90;;;;;;5045712;28;20037;-86
2023/10/22 09:43:37;;;;;;;4.20;3.17;;;17.30;99.90;;;;;;5043926;28;20125;-86
2023/10/22 09:46:06;;;;;;;5.60;3.65;;;17.20;99.90;;;;;;5050354;28;20029;-87
2023/10/22 09:48:34;;;;;;;4.40;4.00;;;17.10;99.90;;;;;;5058228;28;20568;-87
2023/10/22 09:51:02;;;;;;;4.78;3.95;;;17.00;99.90;;;;;;5053338;28;20390;-86
2023/10/22 09:53:30;;;;;;;5.32;3.72;;;16.60;99.90;;;;;;5054713;28;20541;-88
2023/10/22 09:55:56;;;;;;;5.15;3.90;;;16.80;99.90;;;;;;5059721;28;20043;-85
2023/10/22 09:58:31;;;;;;;4.50;4.10;;;16.80;99.90;;;;;;5053581;28;20032;-85
2023/10/22 10:00:59;;;;;;;4.10;3.70;;;16.70;99.90;;;;;;5066726;28;20036;-85
2023/10/22 10:03:26;;;;;;;5.70;3.72;;;16.80;99.90;;;;;;5053208;28;20630;-85
2023/10/22 10:05:52;;;;;;;4.70;3.75;;;16.90;99.90;;;;;;5069960;28;20111;-86
2023/10/22 10:08:18;;;;;;;5.47;4.40;;;16.90;99.90;;;;;;5070481;28;20132;-86
2023/10/22 10:10:45;;;;;;;6.15;4.40;;;16.70;99.90;;;;;;5068385;28;20505;-86
2023/10/22 10:13:12;;;;;;;5.70;3.95;;;16.40;99.90;;;;;;5050713;28;20051;-87
2023/10/22 10:15:38;;;;;;;5.22;4.50;;;16.20;99.90;;;;;;5070054;28;20041;-87
2023/10/22 10:18:10;;;;;;;6.60;4.38;;;16.10;99.90;;;;;;5055267;28;20037;-86
2023/10/22 10:20:39;;;;;;;4.60;4.20;;;16.30;99.90;;;;;;5056954;28;20512;-87
2023/10/22 10:23:08;;;;;;;5.60;4.28;;;16.60;99.90;;;;;;5071607;28;20448;-87
2023/10/22 10:25:36;;;;;;;4.30;3.90;;;16.80;99.90;;;;;;5053722;28;20040;-86
2023/10/22 10:28:07;;;;;;;5.93;3.97;;;17.10;99.90;;;;;;5066364;28;20047;-85
2023/10/22 10:30:33;;;;;;;5.28;3.60;;;17.20;99.90;;;;;;5052120;28;20035;-87
2023/10/22 10:32:59;;;;;;;5.07;4.07;;;17.40;99.90;;;;;;5055396;28;20054;-86
2023/10/22 10:35:27;;;;;;;4.47;3.95;;;17.80;99.90;;;;;;5077430;28;20558;-86
2023/10/22 10:38:15;;;;;;;5.22;4.18;;;17.80;99.90;;;;;;5060489;28;20411;-86
2023/10/22 10:40:49;;;;;;;4.10;3.80;;;17.50;99.90;;;;;;5048762;28;20037;-86
2023/10/22 10:43:15;;;;;;;5.88;4.10;;;17.70;99.90;;;;;;5044160;28;20680;-85
2023/10/22 10:46:19;;;;;;;4.45;3.80;;;17.90;99.90;;;;;;5057102;28;20100;-86
2023/10/22 10:48:47;;;;;;;;;;;17.90;99.90;;;;;;5059026;28;20045;-86
2023/10/22 10:51:21;;;;;;;5.72;3.20;;;17.60;99.90;;;;;;5065185;28;19971;-86
2023/10/22 10:54:08;;;;;;;4.43;3.88;;;17.30;99.90;;;;;;5069836;28;20055;-85
2023/10/22 10:56:55;;;;;;;5.10;4.00;;;16.80;99.90;;;;;;5060957;28;20048;-86
2023/10/22 10:59:30;;;;;;;6.05;3.95;;;16.50;99.90;;;;;;5044137;28;20099;-84
2023/10/22 11:02:22;;;;;;;3.92;3.25;;;16.30;99.90;;;;;;5046937;28;20045;-84
2023/10/22 11:04:47;;;;;;;3.50;3.20;;;16.00;99.90;;;;;;5059702;28;20041;-85
2023/10/22 11:07:14;;;;;;;4.53;3.40;;;15.70;99.90;;;;;;5059443;28;20044;-86
2023/10/22 11:09:40;;;;;;;3.95;3.65;;;15.70;99.90;;;;;;5042446;28;20663;-86
2023/10/22 11:12:08;;;;;;;5.50;3.72;;;15.70;99.90;;;;;;5063966;28;20074;-86
2023/10/22 11:14:37;;;;;;;3.55;3.20;;;15.50;99.90;;;;;;5044409;28;20045;-86
2023/10/22 11:17:03;;;;;;;5.65;3.40;;;15.60;99.90;;;;;;5048559;28;20127;-85
2023/10/22 11:19:31;;;;;;;4.30;3.13;;;15.80;99.90;;;;;;5060450;28;20028;-85
2023/10/22 11:25:13;;;;;;;5.00;3.10;;;15.90;99.90;;;;;;5058673;28;20072;-85
2023/10/22 11:27:39;;;;;;;3.47;3.17;;;15.70;99.90;;;;;;5061199;28;20099;-85
2023/10/22 11:30:06;;;;;;;5.35;2.78;;;15.60;99.90;;;;;;5047705;28;20462;-86
2023/10/22 11:32:34;;;;;;;4.40;2.20;;;15.30;99.90;;;;;;5039391;28;20036;-86
2023/10/22 11:35:03;;;;;;;4.88;2.47;;;15.10;99.90;;;;;;5069689;28;20040;-85
2023/10/22 11:37:30;;;;;;;3.33;2.28;;;15.00;99.90;;;;;;5069851;28;20384;-86
2023/10/22 11:39:57;;;;;;;2.95;2.00;;;14.80;99.90;;;;;;5072471;28;20085;-86
2023/10/22 11:42:31;;;;;;;3.75;2.10;;;14.70;99.90;;;;;;5072314;28;20033;-85
2023/10/22 11:44:59;;;;;;;6.20;2.10;;;14.70;99.90;;;;;;5052068;28;20037;-85
2023/10/22 11:47:27;;;;;;;2.75;1.80;;;14.70;99.90;;;;;;5050395;28;20040;-85
2023/10/22 11:49:54;;;;;;;3.17;1.90;;;14.50;99.90;;;;;;5067413;28;20040;-85
2023/10/22 11:52:38;;;;;;;3.05;2.05;;;14.40;99.90;;;;;;5057934;28;20067;-85
2023/10/22 11:55:05;;;;;;;2.70;1.98;;;14.40;99.90;;;;;;5071734;28;20063;-85
2023/10/22 11:57:32;;;;;;;2.65;1.90;;;14.20;99.90;;;;;;5048000;28;20044;-85
2023/10/22 11:59:58;;;;;;;3.83;2.17;;;14.20;99.90;;;;;;5045528;28;20131;-86
2023/10/22 12:02:23;;;;;;;2.83;2.00;;;14.10;99.90;;;;;;5062913;28;20222;-84
2023/10/22 12:04:49;;;;;;;4.55;1.52;;;14.10;99.90;;;;;;5058880;28;20036;-85
2023/10/22 12:07:15;;;;;;;3.28;1.83;;;13.90;99.90;;;;;;5047829;28;20044;-85
2023/10/22 12:09:41;;;;;;;4.45;1.77;;;13.90;99.90;;;;;;5047975;28;20079;-84
2023/10/22 12:12:07;;;;;;;3.40;1.65;;;13.90;99.90;;;;;;5054588;28;20076;-86
2023/10/22 12:14:38;;;;;;;4.88;1.80;;;13.80;99.90;;;;;;5041191;28;20044;-87
2023/10/22 12:17:04;;;;;;;4.30;1.67;;;13.70;99.90;;;;;;5045782;28;20036;-86
2023/10/22 12:19:30;;;;;;;3.42;1.30;;;13.70;99.90;;;;;;5049364;28;20045;-86
2023/10/22 12:21:55;;;;;;;2.28;1.30;;;13.80;99.90;;;;;;5051666;28;20051;-85
2023/10/22 12:24:21;;;;;;;3.45;1.10;;;13.70;99.90;;;;;;5057242;28;20086;-85
2023/10/22 12:26:47;;;;;;;4.40;1.20;;;13.70;99.90;;;;;;5061680;28;20040;-85
2023/10/22 12:29:12;;;;;;;2.42;1.35;;;13.80;99.90;;;;;;5063107;28;20070;-87
2023/10/22 12:31:38;;;;;;;3.25;1.10;;;14.10;99.90;;;;;;5062660;28;20045;-86
2023/10/22 12:34:04;;;;;;;1.98;0.95;;;14.30;99.90;;;;;;5059172;28;20127;-86
2023/10/22 12:36:29;;;;;;;2.50;1.10;;;14.30;99.90;;;;;;5067969;28;20167;-86
2023/10/22 12:38:55;;;;;;;1.77;1.20;;;14.30;99.90;;;;;;5066869;28;20492;-86
2023/10/22 12:41:21;;;;;;;4.43;1.10;;;14.30;99.90;;;;;;5061238;28;20033;-85
2023/10/22 12:43:47;;;;;;;1.70;0.85;;;14.20;99.90;;;;;;5059428;28;20125;-86
2023/10/22 12:46:13;;;;;;;1.45;0.85;;;14.10;99.90;;;;;;5048622;28;20092;-86
2023/10/22 12:48:38;;;;;;;1.65;0.80;;;14.00;99.90;;;;;;5065126;28;20040;-85